Time;durP1;ratioP1;P1;durP2;ratioP2;P2;SDS_P1;SDS_P2;PMS_P1;PMS_P2;Temp;Humidity;BMP_temperature;BMP_pressure;BME280_temperature;BME280_humidity;BME280_pressure;Samples;Min_cycle;Max_cycle;Signal;HPM_P1;HPM_P2
2022/07/30 00:00:08;;;;;;;;;;;;;;;-140.72;100.00;52346.22;5072692;28;19959;-68
2022/07/30 00:02:36;;;;;;;;;;;;;;;-140.72;100.00;52293.47;5072418;28;20298;-68
2022/07/30 00:05:02;;;;;;;;;;;;;;;-140.72;100.00;52338.09;5042343;28;19962;-67
2022/07/30 00:07:27;;;;;;;;;;;;;;;-140.72;100.00;52334.03;5073562;28;19920;-68
2022/07/30 00:09:52;;;;;;;;;;;;;;;-140.72;100.00;52287.38;5052111;28;19990;-67
2022/07/30 00:12:18;;;;;;;;;;;;;;;-140.72;100.00;52330.00;5063121;28;19923;-65
2022/07/30 00:14:43;;;;;;;;;;;;;;;-140.72;100.00;52346.22;5055517;28;20346;-68
2022/07/30 00:17:08;;;;;;;;;;;;;;;-140.72;100.00;52334.03;5054857;28;19966;-68
2022/07/30 00:19:33;;;;;;;;;;;;;;;-140.72;100.00;52325.94;5053060;28;20019;-68
2022/07/30 00:21:59;;;;;;;;;;;;;;;-140.72;100.00;52283.31;5073607;28;19923;-65
2022/07/30 00:24:24;;;;;;;;;;;;;;;-140.72;100.00;52354.34;5054703;28;19969;-68
2022/07/30 00:26:49;;;;;;;;;;;;;;;-140.72;100.00;52325.94;5052227;28;19917;-67
2022/07/30 00:29:14;;;;;;;;;;;;;;;-140.72;100.00;52327.97;5041817;28;19916;-68
2022/07/30 00:31:40;;;;;;;;;;;;;;;-140.72;100.00;52313.75;5073363;28;19916;-68
2022/07/30 00:34:05;;;;;;;;;;;;;;;-140.72;100.00;52340.13;5071828;28;20368;-67
2022/07/30 00:36:30;;;;;;;;;;;;;;;-140.72;100.00;52313.75;5063801;28;19917;-68
2022/07/30 00:38:56;;;;;;;;;;;;;;;-140.72;100.00;52382.75;5063400;28;20445;-67
2022/07/30 00:41:21;;;;;;;;;;;;;;;-140.72;100.00;52348.25;5061592;28;19916;-67
2022/07/30 00:43:46;;;;;;;;;;;;;;;-140.72;100.00;52317.81;5070232;28;19917;-68
2022/07/30 00:46:13;;;;;;;;;;;;;;;-140.72;100.00;52368.53;5077478;28;19999;-68
2022/07/30 00:48:38;;;;;;;;;;;;;;;-140.72;100.00;52346.22;5056024;28;20486;-67
2022/07/30 00:51:04;;;;;;;;;;;;;;;-140.72;100.00;52346.22;5077965;28;19928;-67
2022/07/30 00:53:29;;;;;;;;;;;;;;;-140.72;100.00;52338.09;5064890;28;20430;-68
2022/07/30 00:55:54;;;;;;;;;;;;;;;-140.72;100.00;52360.44;5070245;28;19928;-67
2022/07/30 00:58:19;;;;;;;;;;;;;;;-140.72;100.00;52344.19;5057270;28;20375;-65
2022/07/30 01:00:45;;;;;;;;;;;;;;;-140.72;100.00;52342.16;5057120;28;19939;-67
2022/07/30 01:03:10;;;;;;;;;;;;;;;-140.72;100.00;52332.03;5077257;28;19927;-67
2022/07/30 01:05:35;;;;;;;;;;;;;;;-140.72;100.00;52354.34;5058763;28;19916;-68
2022/07/30 01:08:00;;;;;;;;;;;;;;;-140.72;100.00;52305.63;5076438;28;20356;-67
2022/07/30 01:10:26;;;;;;;;;;;;;;;-140.72;100.00;52321.88;5077082;28;19916;-67
2022/07/30 01:12:54;;;;;;;;;;;;;;;-140.72;100.00;52346.22;5076148;28;19923;-67
2022/07/30 01:15:20;;;;;;;;;;;;;;;-140.72;100.00;52405.06;5064424;28;20379;-67
2022/07/30 01:17:47;;;;;;;;;;;;;;;-140.72;100.00;52348.25;5074286;28;19971;-67
2022/07/30 01:20:14;;;;;;;;;;;;;;;-140.72;100.00;52346.22;5075871;28;19916;-67
2022/07/30 01:22:44;;;;;;;;;;;;;;;-140.72;100.00;52372.59;5075318;28;19923;-67
2022/07/30 01:25:23;;;;;;;;;;;;;;;-140.72;100.00;52370.56;5050751;28;19917;-67
2022/07/30 01:27:53;;;;;;;;;;;;;;;-140.72;100.00;52390.84;5056063;28;19923;-67
2022/07/30 01:30:20;;;;;;;;;;;;;;;-140.72;100.00;52323.91;5062684;28;20294;-68
2022/07/30 01:32:46;;;;;;;;;;;;;;;-140.72;100.00;52390.84;5074799;28;19921;-68
2022/07/30 01:35:12;;;;;;;;;;;;;;;-140.72;100.00;52358.41;5075540;28;19927;-67
2022/07/30 01:37:37;;;;;;;;;;;;;;;-140.72;100.00;52366.50;5076278;28;20333;-67
2022/07/30 01:40:03;;;;;;;;;;;;;;;-140.72;100.00;52368.53;5057645;28;20011;-68
2022/07/30 01:42:29;;;;;;;;;;;;;;;-140.72;100.00;52356.38;5076061;28;19921;-67
2022/07/30 01:44:56;;;;;;;;;;;;;;;-140.72;100.00;52362.44;5074910;28;20355;-68
2022/07/30 01:47:22;;;;;;;;;;;;;;;-140.72;100.00;52374.63;5076400;28;19917;-67
2022/07/30 01:49:48;;;;;;;;;;;;;;;-140.72;100.00;52390.84;5075165;28;19917;-67
2022/07/30 01:52:15;;;;;;;;;;;;;;;-140.72;100.00;52423.31;5076020;28;19916;-68
2022/07/30 01:54:43;;;;;;;;;;;;;;;-140.72;100.00;52368.53;5074935;28;19951;-67
2022/07/30 01:57:08;;;;;;;;;;;;;;;-140.72;100.00;52360.44;5063973;28;20011;-67
2022/07/30 01:59:34;;;;;;;;;;;;;;;-140.72;100.00;52358.41;5042606;28;20011;-67
2022/07/30 02:02:00;;;;;;;;;;;;;;;-140.72;100.00;52394.91;5058186;28;19917;-67
2022/07/30 02:04:26;;;;;;;;;;;;;;;-140.72;100.00;52372.59;5057519;28;19924;-66
2022/07/30 02:06:57;;;;;;;;;;;;;;;-140.72;100.00;52330.00;5056977;28;20255;-68
2022/07/30 02:09:27;;;;;;;;;;;;;;;-140.72;100.00;52390.84;5076094;28;19924;-67
2022/07/30 02:15:00;;;;;;;;;;;;;;;-140.72;100.00;52378.69;5061846;28;20287;-67
2022/07/30 02:17:35;;;;;;;;;;;;;;;-140.72;100.00;52394.91;5041286;28;19923;-67
2022/07/30 02:20:01;;;;;;;;;;;;;;;-140.72;100.00;52354.34;5043321;28;19923;-66
2022/07/30 02:22:32;;;;;;;;;;;;;;;-140.72;100.00;52407.09;5063473;28;20372;-67
2022/07/30 02:24:58;;;;;;;;;;;;;;;-140.72;100.00;52419.28;5062224;28;19923;-68
2022/07/30 02:27:29;;;;;;;;;;;;;;;-140.72;100.00;52407.09;5047078;28;19923;-68
2022/07/30 02:29:56;;;;;;;;;;;;;;;-140.72;100.00;52407.09;5067728;28;19970;-67
2022/07/30 02:32:22;;;;;;;;;;;;;;;-140.72;100.00;52376.66;5067123;28;19917;-68
2022/07/30 02:34:50;;;;;;;;;;;;;;;-140.72;100.00;52368.53;5064719;28;19932;-67
2022/07/30 02:37:17;;;;;;;;;;;;;;;-140.72;100.00;52378.69;5059300;28;19943;-67
2022/07/30 02:39:43;;;;;;;;;;;;;;;-140.72;100.00;52386.81;5066898;28;19917;-67
2022/07/30 02:42:09;;;;;;;;;;;;;;;-140.72;100.00;52386.81;5075008;28;20386;-68
2022/07/30 02:44:36;;;;;;;;;;;;;;;-140.72;100.00;52364.47;5074994;28;19920;-66
2022/07/30 02:47:02;;;;;;;;;;;;;;;-140.72;100.00;52362.44;5056966;28;19924;-67
2022/07/30 02:49:28;;;;;;;;;;;;;;;-140.72;100.00;52423.31;5071892;28;19916;-67
2022/07/30 02:51:54;;;;;;;;;;;;;;;-140.72;100.00;52384.78;5064651;28;20384;-67
2022/07/30 02:54:21;;;;;;;;;;;;;;;-140.72;100.00;52370.56;5056196;28;19974;-67
2022/07/30 02:56:48;;;;;;;;;;;;;;;-140.72;100.00;52388.84;5082553;28;20004;-68
2022/07/30 02:59:15;;;;;;;;;;;;;;;-140.72;100.00;52370.56;5073607;28;19917;-67
2022/07/30 03:01:41;;;;;;;;;;;;;;;-140.72;100.00;52403.03;5069336;28;19917;-67
2022/07/30 03:04:07;;;;;;;;;;;;;;;-140.72;100.00;52419.28;5060200;28;20375;-66
2022/07/30 03:06:34;;;;;;;;;;;;;;;-140.72;100.00;52415.22;5052510;28;19917;-66
2022/07/30 03:09:01;;;;;;;;;;;;;;;-140.72;100.00;52415.22;5066909;28;20054;-67
2022/07/30 03:11:28;;;;;;;;;;;;;;;-140.72;100.00;52417.25;5081491;28;19923;-67
2022/07/30 03:13:53;;;;;;;;;;;;;;;-140.72;100.00;52401.00;5080161;28;19967;-67
2022/07/30 03:16:20;;;;;;;;;;;;;;;-140.72;100.00;52411.16;5053452;28;19917;-66
2022/07/30 03:18:47;;;;;;;;;;;;;;;-140.72;100.00;52398.97;5054671;28;19997;-68
2022/07/30 03:21:14;;;;;;;;;;;;;;;-140.72;100.00;52417.25;5062732;28;19974;-67
2022/07/30 03:23:40;;;;;;;;;;;;;;;-140.72;100.00;52411.16;5061147;28;19970;-67
2022/07/30 03:26:07;;;;;;;;;;;;;;;-140.72;100.00;52384.78;5074046;28;19920;-67
2022/07/30 03:28:35;;;;;;;;;;;;;;;-140.72;100.00;52390.84;5080030;28;19916;-67
2022/07/30 03:31:00;;;;;;;;;;;;;;;-140.72;100.00;52390.84;5077886;28;19917;-67
2022/07/30 03:33:26;;;;;;;;;;;;;;;-140.72;100.00;52398.97;5062182;28;19923;-67
2022/07/30 03:35:51;;;;;;;;;;;;;;;-140.72;100.00;52411.16;5054610;28;20253;-67
2022/07/30 03:38:17;;;;;;;;;;;;;;;-140.72;100.00;52437.53;5062542;28;19960;-66
2022/07/30 03:40:43;;;;;;;;;;;;;;;-140.72;100.00;52423.31;5073100;28;19916;-67
2022/07/30 03:43:09;;;;;;;;;;;;;;;-140.72;100.00;52398.97;5074101;28;19916;-66
2022/07/30 03:45:35;;;;;;;;;;;;;;;-140.72;100.00;52417.25;5072955;28;20302;-67
2022/07/30 03:48:00;;;;;;;;;;;;;;;-140.72;100.00;52405.06;5073346;28;19917;-67
2022/07/30 03:50:26;;;;;;;;;;;;;;;-140.72;100.00;52421.28;5054644;28;19923;-67
2022/07/30 03:52:52;;;;;;;;;;;;;;;-140.72;100.00;52423.31;5056079;28;20305;-67
2022/07/30 03:55:17;;;;;;;;;;;;;;;-140.72;100.00;52388.84;5072674;28;19917;-67
2022/07/30 03:57:42;;;;;;;;;;;;;;;-140.72;100.00;52390.84;5060464;28;19916;-68
2022/07/30 04:00:12;;;;;;;;;;;;;;;-140.72;100.00;52441.59;5060920;28;20342;-67
2022/07/30 04:02:47;;;;;;;;;;;;;;;-140.72;100.00;52415.22;5062383;28;19934;-67
2022/07/30 04:05:14;;;;;;;;;;;;;;;-140.72;100.00;52433.47;5057060;28;19939;-67
2022/07/30 04:07:39;;;;;;;;;;;;;;;-140.72;100.00;52403.03;5054291;28;19970;-67
2022/07/30 04:10:04;;;;;;;;;;;;;;;-140.72;100.00;52398.97;5065699;28;20295;-67
2022/07/30 04:12:30;;;;;;;;;;;;;;;-140.72;100.00;52405.06;5062598;28;19923;-67
2022/07/30 04:14:56;;;;;;;;;;;;;;;-140.72;100.00;52431.44;5054826;28;20007;-67
2022/07/30 04:17:24;;;;;;;;;;;;;;;-140.72;100.00;52431.44;5073791;28;19923;-67
2022/07/30 04:19:52;;;;;;;;;;;;;;;-140.72;100.00;52394.91;5056732;28;19933;-66
2022/07/30 04:22:22;;;;;;;;;;;;;;;-140.72;100.00;52427.38;5036029;28;20372;-67
2022/07/30 04:24:48;;;;;;;;;;;;;;;-140.72;100.00;52431.44;5066399;28;19938;-67
2022/07/30 04:27:13;;;;;;;;;;;;;;;-140.72;100.00;52407.09;5064242;28;19916;-67
2022/07/30 04:29:39;;;;;;;;;;;;;;;-140.72;100.00;52364.47;5060204;28;19923;-67
2022/07/30 04:32:06;;;;;;;;;;;;;;;-140.72;100.00;52429.41;5072717;28;19963;-66
2022/07/30 04:34:32;;;;;;;;;;;;;;;-140.72;100.00;52409.13;5071323;28;19920;-67
2022/07/30 04:36:57;;;;;;;;;;;;;;;-140.72;100.00;52372.59;5044908;28;20359;-67
2022/07/30 04:39:22;;;;;;;;;;;;;;;-140.72;100.00;52403.03;5070878;28;20002;-67
2022/07/30 04:41:47;;;;;;;;;;;;;;;-140.72;100.00;52415.22;5045082;28;19963;-67
2022/07/30 04:44:12;;;;;;;;;;;;;;;-140.72;100.00;52370.56;5055388;28;19924;-67
2022/07/30 04:46:38;;;;;;;;;;;;;;;-140.72;100.00;52439.56;5063801;28;19939;-67
2022/07/30 04:49:03;;;;;;;;;;;;;;;-140.72;100.00;52382.75;5071716;28;19916;-67
2022/07/30 04:51:31;;;;;;;;;;;;;;;-140.72;100.00;52419.28;5063336;28;19917;-67
2022/07/30 04:53:57;;;;;;;;;;;;;;;-140.72;100.00;52384.78;5041568;28;19921;-68
2022/07/30 04:56:23;;;;;;;;;;;;;;;-140.72;100.00;52394.91;5066736;28;19921;-66
2022/07/30 04:58:49;;;;;;;;;;;;;;;-140.72;100.00;52403.03;5061711;28;19927;-67
2022/07/30 05:01:17;;;;;;;;;;;;;;;-140.72;100.00;52405.06;5045090;28;20378;-66
2022/07/30 05:03:43;;;;;;;;;;;;;;;-140.72;100.00;52403.03;5064044;28;20023;-66
2022/07/30 05:06:10;;;;;;;;;;;;;;;-140.72;100.00;52429.41;5055075;28;20410;-67
2022/07/30 05:08:36;;;;;;;;;;;;;;;-140.72;100.00;52415.22;5072712;28;19970;-67
2022/07/30 05:11:02;;;;;;;;;;;;;;;-140.72;100.00;52390.84;5073283;28;19921;-68
2022/07/30 05:13:27;;;;;;;;;;;;;;;-140.72;100.00;52413.19;5069659;28;19951;-67
2022/07/30 05:15:52;;;;;;;;;;;;;;;-140.72;100.00;52354.34;5055293;28;19956;-67
2022/07/30 05:18:17;;;;;;;;;;;;;;;-140.72;100.00;52382.75;5050137;28;19920;-67
2022/07/30 05:20:42;;;;;;;;;;;;;;;-140.72;100.00;52364.47;5063554;28;19917;-67
2022/07/30 05:23:08;;;;;;;;;;;;;;;-140.72;100.00;52376.66;5072894;28;19920;-67
2022/07/30 05:25:33;;;;;;;;;;;;;;;-140.72;100.00;52403.03;5064317;28;20007;-67
2022/07/30 05:27:58;;;;;;;;;;;;;;;-140.72;100.00;52362.44;5058301;28;19917;-67
2022/07/30 05:30:24;;;;;;;;;;;;;;;-140.72;100.00;52372.59;5056940;28;19968;-67
2022/07/30 05:32:49;;;;;;;;;;;;;;;-140.72;100.00;52384.78;5064289;28;19916;-68
2022/07/30 05:35:14;;;;;;;;;;;;;;;-140.72;100.00;52413.19;5041551;28;19971;-66
2022/07/30 05:37:40;;;;;;;;;;;;;;;-140.72;100.00;52386.81;5061961;28;20467;-67
2022/07/30 05:40:05;;;;;;;;;;;;;;;-140.72;100.00;52366.50;5057958;28;20018;-67
2022/07/30 05:42:30;;;;;;;;;;;;;;;-140.72;100.00;52370.56;5053787;28;20014;-67
2022/07/30 05:44:56;;;;;;;;;;;;;;;-140.72;100.00;52330.00;5040448;28;19962;-66
2022/07/30 05:47:21;;;;;;;;;;;;;;;-140.72;100.00;52368.53;5059834;28;19993;-67
2022/07/30 05:49:47;;;;;;;;;;;;;;;-140.72;100.00;52342.16;5057937;28;19917;-67
2022/07/30 05:52:12;;;;;;;;;;;;;;;-140.72;100.00;52366.50;5059057;28;20456;-66
2022/07/30 05:54:37;;;;;;;;;;;;;;;-140.72;100.00;52370.56;5048349;28;19947;-67
2022/07/30 05:57:03;;;;;;;;;;;;;;;-140.72;100.00;52340.13;5054488;28;19916;-67
2022/07/30 05:59:28;;;;;;;;;;;;;;;-140.72;100.00;52350.28;5067021;28;19916;-68
2022/07/30 06:01:53;;;;;;;;;;;;;;;-140.72;100.00;52364.47;5075847;28;19942;-67
2022/07/30 06:04:19;;;;;;;;;;;;;;;-140.72;100.00;52340.13;5088103;28;19924;-67
2022/07/30 06:06:44;;;;;;;;;;;;;;;-140.72;100.00;52354.34;5057732;28;19920;-67
2022/07/30 06:09:09;;;;;;;;;;;;;;;-140.72;100.00;52350.28;5057412;28;19917;-67
2022/07/30 06:11:34;;;;;;;;;;;;;;;-140.72;100.00;52342.16;5075132;28;19967;-67
2022/07/30 06:14:00;;;;;;;;;;;;;;;-140.72;100.00;52327.97;5075488;28;20303;-67
2022/07/30 06:16:25;;;;;;;;;;;;;;;-140.72;100.00;52336.06;5057291;28;20345;-67
2022/07/30 06:18:50;;;;;;;;;;;;;;;-140.72;100.00;52342.16;5074970;28;19920;-68
2022/07/30 06:21:15;;;;;;;;;;;;;;;-140.72;100.00;52334.03;5072093;28;19923;-67
2022/07/30 06:23:40;;;;;;;;;;;;;;;-140.72;100.00;52297.53;5073205;28;19924;-67
2022/07/30 06:26:06;;;;;;;;;;;;;;;-140.72;100.00;52313.75;5071828;28;19922;-67
2022/07/30 06:28:31;;;;;;;;;;;;;;;-140.72;100.00;52307.66;5075265;28;19917;-67
2022/07/30 06:30:56;;;;;;;;;;;;;;;-140.72;100.00;52301.59;5072929;28;20368;-67
2022/07/30 06:33:21;;;;;;;;;;;;;;;-140.72;100.00;52311.72;5073399;28;19922;-67
2022/07/30 06:35:47;;;;;;;;;;;;;;;-140.72;100.00;52295.50;5073275;28;19917;-67
2022/07/30 06:38:13;;;;;;;;;;;;;;;-140.72;100.00;52301.59;5054390;28;19916;-68
2022/07/30 06:40:38;;;;;;;;;;;;;;;-140.72;100.00;52281.28;5074926;28;20360;-67
2022/07/30 06:43:03;;;;;;;;;;;;;;;-140.72;100.00;52311.72;5074428;28;19916;-67
2022/07/30 06:45:29;;;;;;;;;;;;;;;-140.72;100.00;52330.00;5054695;28;19923;-67
2022/07/30 06:47:57;;;;;;;;;;;;;;;-140.72;100.00;52293.47;5053825;28;19927;-67
2022/07/30 06:50:23;;;;;;;;;;;;;;;-140.72;100.00;52309.69;5061716;28;20454;-68
2022/07/30 06:52:48;;;;;;;;;;;;;;;-140.72;100.00;52285.34;5075764;28;19917;-68
2022/07/30 06:55:13;;;;;;;;;;;;;;;-140.72;100.00;52309.69;5072850;28;19917;-68
2022/07/30 06:57:39;;;;;;;;;;;;;;;-140.72;100.00;52291.44;5067970;28;19916;-67
2022/07/30 07:00:05;;;;;;;;;;;;;;;-140.72;100.00;52273.19;5061392;28;19920;-67
2022/07/30 07:02:30;;;;;;;;;;;;;;;-140.72;100.00;52269.13;5061966;28;19920;-66
2022/07/30 07:04:55;;;;;;;;;;;;;;;-140.72;100.00;52273.19;5076292;28;20260;-67
2022/07/30 07:07:21;;;;;;;;;;;;;;;-140.72;100.00;52244.78;5070995;28;19917;-67
2022/07/30 07:09:46;;;;;;;;;;;;;;;-140.72;100.00;52283.31;5071922;28;19924;-67
2022/07/30 07:12:11;;;;;;;;;;;;;;;-140.72;100.00;52267.09;5067534;28;20253;-67
2022/07/30 07:14:36;;;;;;;;;;;;;;;-140.72;100.00;52269.13;5069705;28;19917;-67
2022/07/30 07:17:02;;;;;;;;;;;;;;;-140.72;100.00;52246.78;5065364;28;19916;-67
2022/07/30 07:19:27;;;;;;;;;;;;;;;-140.72;100.00;52307.66;5064952;28;20019;-68
2022/07/30 07:21:52;;;;;;;;;;;;;;;-140.72;100.00;52244.78;5055804;28;19916;-68
2022/07/30 07:24:18;;;;;;;;;;;;;;;-140.72;100.00;52281.28;5054726;28;20287;-67
2022/07/30 07:26:43;;;;;;;;;;;;;;;-140.72;100.00;52248.81;5068532;28;19928;-68
2022/07/30 07:29:08;;;;;;;;;;;;;;;-140.72;100.00;52295.50;5055711;28;19917;-67
2022/07/30 07:31:33;;;;;;;;;;;;;;;-140.72;100.00;52246.78;5074055;28;19916;-67
2022/07/30 07:33:58;;;;;;;;;;;;;;;-140.72;100.00;52279.25;5070032;28;19920;-67
2022/07/30 07:36:24;;;;;;;;;;;;;;;-140.72;100.00;52254.91;5046368;28;19920;-67
2022/07/30 07:38:49;;;;;;;;;;;;;;;-140.72;100.00;52269.13;5061876;28;19917;-67
2022/07/30 07:41:14;;;;;;;;;;;;;;;-140.72;100.00;52299.56;5061605;28;19924;-67
2022/07/30 07:43:40;;;;;;;;;;;;;;;-140.72;100.00;52256.94;5067867;28;20287;-67
2022/07/30 07:46:05;;;;;;;;;;;;;;;-140.72;100.00;52258.97;5041467;28;20375;-67
2022/07/30 07:48:31;;;;;;;;;;;;;;;-140.72;100.00;52216.34;5070092;28;19916;-67
2022/07/30 07:50:56;;;;;;;;;;;;;;;-140.72;100.00;52234.63;5070547;28;20283;-67
2022/07/30 07:53:21;;;;;;;;;;;;;;;-140.72;100.00;52254.91;5042946;28;19917;-68
2022/07/30 07:55:47;;;;;;;;;;;;;;;-140.72;100.00;52265.06;5071118;28;19916;-67
2022/07/30 07:58:12;;;;;;;;;;;;;;;-140.72;100.00;52214.34;5067439;28;19917;-67
2022/07/30 08:00:38;;;;;;;;;;;;;;;-140.72;100.00;52236.66;5067389;28;19916;-67
2022/07/30 08:03:03;;;;;;;;;;;;;;;-140.72;100.00;52204.19;5075984;28;19916;-67
2022/07/30 08:05:28;;;;;;;;;;;;;;;-140.72;100.00;52204.19;5072509;28;19917;-68
2022/07/30 08:07:53;;;;;;;;;;;;;;;-140.72;100.00;52218.38;5063800;28;19924;-67
2022/07/30 08:10:19;;;;;;;;;;;;;;;-140.72;100.00;52196.06;5060367;28;19969;-68
2022/07/30 08:12:44;;;;;;;;;;;;;;;-140.72;100.00;52208.25;5055526;28;19921;-67
2022/07/30 08:15:10;;;;;;;;;;;;;;;-140.72;100.00;52200.13;5072217;28;20067;-67
2022/07/30 08:17:39;;;;;;;;;;;;;;;-140.72;100.00;52169.69;5072187;28;19920;-68
2022/07/30 08:20:04;;;;;;;;;;;;;;;-140.72;100.00;52151.44;5070927;28;19924;-67
2022/07/30 08:22:29;;;;;;;;;;;;;;;-140.72;100.00;52131.16;5073662;28;19940;-67
2022/07/30 08:24:55;;;;;;;;;;;;;;;-140.72;100.00;52155.50;5053934;28;19916;-68
2022/07/30 08:27:20;;;;;;;;;;;;;;;-140.72;100.00;52196.06;5073528;28;19923;-68
2022/07/30 08:29:45;;;;;;;;;;;;;;;-140.72;100.00;52165.63;5053827;28;19924;-67
2022/07/30 08:32:11;;;;;;;;;;;;;;;-140.72;100.00;52163.59;5073770;28;19916;-67
2022/07/30 08:34:36;;;;;;;;;;;;;;;-140.72;100.00;52159.56;5055125;28;19925;-68
2022/07/30 08:37:02;;;;;;;;;;;;;;;-140.72;100.00;52139.25;5073245;28;20268;-66
2022/07/30 08:39:28;;;;;;;;;;;;;;;-140.72;100.00;52127.09;5071532;28;20339;-67
2022/07/30 08:41:53;;;;;;;;;;;;;;;-140.72;100.00;52143.31;5053827;28;20007;-67
2022/07/30 08:44:20;;;;;;;;;;;;;;;-140.72;100.00;52118.97;5072849;28;19924;-66
2022/07/30 08:46:46;;;;;;;;;;;;;;;-140.72;100.00;52123.03;5073153;28;19924;-67
2022/07/30 08:49:11;;;;;;;;;;;;;;;-140.72;100.00;52078.38;5053490;28;19916;-66
2022/07/30 08:51:37;;;;;;;;;;;;;;;-140.72;100.00;52102.75;5055624;28;19940;-67
2022/07/30 08:54:03;;;;;;;;;;;;;;;-140.72;100.00;52078.38;5054868;28;19923;-67
2022/07/30 08:56:28;;;;;;;;;;;;;;;-140.72;94.70;52019.56;5073061;28;19917;-67
2022/07/30 08:58:54;;;;;;;;;;;;;;;-140.72;55.60;52052.00;5060679;28;20391;-68
2022/07/30 09:01:20;;;;;;;;;;;;;;;-140.72;20.79;52070.28;5046010;28;20336;-67
2022/07/30 09:03:46;;;;;;;;;;;;;;;-140.72;9.61;52064.19;5065652;28;20342;-68
2022/07/30 09:06:11;;;;;;;;;;;;;;;-140.72;0.00;52054.03;5076064;28;19916;-67
2022/07/30 09:08:36;;;;;;;;;;;;;;;-140.72;0.00;52003.31;5076944;28;20334;-68
2022/07/30 09:11:02;;;;;;;;;;;;;;;-140.72;0.00;52043.91;5077146;28;19924;-67
2022/07/30 09:13:28;;;;;;;;;;;;;;;-140.72;0.00;51999.25;5057543;28;19916;-67
2022/07/30 09:15:54;;;;;;;;;;;;;;;-140.72;0.00;51983.03;5074842;28;19917;-67
2022/07/30 09:18:26;;;;;;;;;;;;;;;-140.72;0.00;51964.78;5056771;28;19916;-67
2022/07/30 09:20:51;;;;;;;;;;;;;;;-140.72;0.00;51962.75;5059276;28;19998;-69
2022/07/30 09:23:16;;;;;;;;;;;;;;;-140.72;0.00;51907.97;5076884;28;19917;-68
2022/07/30 09:25:46;;;;;;;;;;;;;;;-140.72;0.00;51974.91;5073505;28;19924;-67
2022/07/30 09:28:12;;;;;;;;;;;;;;;-140.72;0.00;51985.06;5075555;28;20323;-67
2022/07/30 09:30:46;;;;;;;;;;;;;;;-140.72;0.00;51954.63;5058455;28;19917;-67
2022/07/30 09:33:11;;;;;;;;;;;;;;;-140.72;0.00;51905.94;5075773;28;20314;-68
2022/07/30 09:35:37;;;;;;;;;;;;;;;-140.72;0.00;51916.06;5075833;28;19931;-68
2022/07/30 09:38:03;;;;;;;;;;;;;;;-140.72;0.00;51938.41;5057674;28;19916;-66
2022/07/30 09:40:29;;;;;;;;;;;;;;;-140.72;0.00;51875.50;5076083;28;20291;-67
2022/07/30 09:43:02;;;;;;;;;;;;;;;-140.72;0.00;51875.50;5075956;28;19925;-67
2022/07/30 09:45:27;;;;;;;;;;;;;;;-140.72;0.00;51855.22;5074689;28;20445;-66
2022/07/30 09:47:52;;;;;;;;;;;;;;;-140.72;0.00;51875.50;5069199;28;19916;-67
2022/07/30 09:50:18;;;;;;;;;;;;;;;-140.72;0.00;51861.28;5076035;28;19916;-69
2022/07/30 09:52:45;;;;;;;;;;;;;;;-140.72;0.00;51867.38;5072096;28;19920;-67
2022/07/30 09:55:10;;;;;;;;;;;;;;;-140.72;0.00;51843.03;5075916;28;19921;-67
2022/07/30 09:57:52;;;;;;;;;;;;;;;-140.72;0.00;51761.88;5065352;28;19959;-66
2022/07/30 10:00:19;;;;;;;;;;;;;;;-140.72;0.00;51786.22;5044600;28;19924;-67
2022/07/30 10:02:46;;;;;;;;;;;;;;;-140.72;0.00;51830.88;5081880;28;19916;-67
2022/07/30 10:05:13;;;;;;;;;;;;;;;-140.72;0.00;51834.91;5061988;28;19917;-67
2022/07/30 10:07:38;;;;;;;;;;;;;;;-140.72;0.00;51794.34;5075752;28;20006;-67
2022/07/30 10:10:03;;;;;;;;;;;;;;;-140.72;0.00;51757.81;5074845;28;19930;-67
2022/07/30 10:12:30;;;;;;;;;;;;;;;-140.72;0.00;51832.91;5057593;28;19916;-68
2022/07/30 10:14:55;;;;;;;;;;;;;;;-140.72;0.00;51741.59;5056993;28;19921;-67
2022/07/30 10:17:21;;;;;;;;;;;;;;;-140.72;0.00;51739.56;5056368;28;20011;-69
2022/07/30 10:19:47;;;;;;;;;;;;;;;-140.72;0.00;51696.97;5073320;28;19969;-67
2022/07/30 10:22:12;;;;;;;;;;;;;;;-140.72;0.00;51759.84;5057645;28;19916;-67
2022/07/30 10:24:39;;;;;;;;;;;;;;;-140.72;0.00;51733.47;5074611;28;19916;-66
2022/07/30 10:27:07;;;;;;;;;;;;;;;-140.72;0.00;51757.81;5075241;28;19916;-67
2022/07/30 10:29:33;;;;;;;;;;;;;;;-140.72;0.00;51717.25;5071597;28;19923;-67
2022/07/30 10:31:59;;;;;;;;;;;;;;;-140.72;0.00;51670.59;5075349;28;20035;-67
2022/07/30 10:34:25;;;;;;;;;;;;;;;-140.72;0.00;51727.41;5072212;28;20352;-68
2022/07/30 10:36:53;;;;;;;;;;;;;;;-140.72;0.00;51784.19;5068498;28;19971;-66
2022/07/30 10:39:37;;;;;;;;;;;;;;;-140.72;0.00;51774.06;5070860;28;19932;-67
2022/07/30 10:42:12;;;;;;;;;;;;;;;-140.72;0.00;51816.66;5072945;28;19969;-66
2022/07/30 10:44:48;;;;;;;;;;;;;;;-140.72;0.00;51782.16;5054539;28;19979;-67
2022/07/30 10:47:17;;;;;;;;;;;;;;;-140.72;0.00;51782.16;5063254;28;20411;-65
2022/07/30 10:50:02;;;;;;;;;;;;;;;-140.72;0.00;51822.75;5072735;28;19916;-66
2022/07/30 10:52:44;;;;;;;;;;;;;;;-140.72;0.00;51808.53;5054446;28;19916;-68
2022/07/30 10:55:29;;;;;;;;;;;;;;;-140.72;0.00;51869.41;5066319;28;19923;-68
2022/07/30 10:58:11;;;;;;;;;;;;;;;-140.72;0.00;51865.34;5056472;28;19999;-69
2022/07/30 11:00:51;;;;;;;;;;;;;;;-140.72;0.00;51853.19;5074653;28;19917;-67
2022/07/30 11:03:24;;;;;;;;;;;;;;;-140.72;0.00;51889.69;5053569;28;19916;-67
2022/07/30 11:05:51;;;;;;;;;;;;;;;-140.72;0.00;51849.13;5052691;28;20374;-68
2022/07/30 11:08:30;;;;;;;;;;;;;;;-140.72;0.00;51834.91;5065005;28;19960;-66
2022/07/30 11:10:56;;;;;;;;;;;;;;;-140.72;0.00;51843.03;5050883;28;19921;-67
2022/07/30 11:13:40;;;;;;;;;;;;;;;-140.72;0.00;51881.59;5060219;28;19963;-67
2022/07/30 11:16:05;;;;;;;;;;;;;;;-140.72;0.00;51942.44;5057900;28;19975;-67
2022/07/30 11:18:50;;;;;;;;;;;;;;;-140.72;0.00;51907.97;5054269;28;20011;-67
2022/07/30 11:21:19;;;;;;;;;;;;;;;-140.72;0.00;51970.84;5046183;28;19917;-65
2022/07/30 11:23:45;;;;;;;;;;;;;;;-140.72;0.00;51985.06;5055901;28;19925;-67
2022/07/30 11:26:30;;;;;;;;;;;;;;;-140.72;0.00;51981.00;5074093;28;20354;-67
2022/07/30 11:28:55;;;;;;;;;;;;;;;-140.72;0.00;51997.22;5062835;28;19917;-66
2022/07/30 11:31:25;;;;;;;;;;;;;;;-140.72;0.00;51972.88;5069130;28;20004;-67
2022/07/30 11:33:50;;;;;;;;;;;;;;;-140.72;0.00;52007.38;5055926;28;20395;-67
2022/07/30 11:36:15;;;;;;;;;;;;;;;-140.72;0.00;51985.06;5060380;28;19916;-69
2022/07/30 11:38:57;;;;;;;;;;;;;;;-140.72;0.00;51991.16;5055933;28;19912;-66
2022/07/30 11:41:23;;;;;;;;;;;;;;;-140.72;0.00;51993.19;5070196;28;19916;-67
2022/07/30 11:44:08;;;;;;;;;;;;;;;-140.72;0.00;52009.41;5048746;28;19917;-67
2022/07/30 11:46:34;;;;;;;;;;;;;;;-140.72;0.00;51995.19;5061343;28;19959;-67
2022/07/30 11:49:03;;;;;;;;;;;;;;;-140.72;0.00;51926.22;5054780;28;20288;-67
2022/07/30 11:51:41;;;;;;;;;;;;;;;-140.72;0.00;51893.75;5056498;28;20003;-67
2022/07/30 11:54:09;;;;;;;;;;;;;;;-140.72;0.00;51912.03;5066703;28;19956;-67
2022/07/30 11:56:34;;;;;;;;;;;;;;;-140.72;0.00;51936.38;5044555;28;19923;-66
2022/07/30 11:59:03;;;;;;;;;;;;;;;-140.72;0.00;51956.66;5073637;28;19916;-68
2022/07/30 12:01:29;;;;;;;;;;;;;;;-140.72;0.00;51964.78;5060507;28;19918;-66
2022/07/30 12:03:55;;;;;;;;;;;;;;;-140.72;0.00;51954.63;5066570;28;20264;-67
2022/07/30 12:06:20;;;;;;;;;;;;;;;-140.72;0.00;51940.41;5062507;28;19924;-67
2022/07/30 12:08:47;;;;;;;;;;;;;;;-140.72;0.00;51940.41;5066613;28;19917;-68
2022/07/30 12:11:12;;;;;;;;;;;;;;;-140.72;0.00;51907.97;5054332;28;19917;-67
2022/07/30 12:13:38;;;;;;;;;;;;;;;-140.72;0.00;51897.81;5071972;28;19921;-67
2022/07/30 12:16:08;;;;;;;;;;;;;;;-140.72;0.00;51857.25;5061942;28;19924;-67
2022/07/30 12:18:33;;;;;;;;;;;;;;;-140.72;0.00;51841.00;5071719;28;19921;-67
2022/07/30 12:21:00;;;;;;;;;;;;;;;-140.72;0.00;51812.59;5073377;28;20287;-67
2022/07/30 12:23:26;;;;;;;;;;;;;;;-140.72;0.00;51802.47;5056245;28;20010;-67